Capaldo, Kansas
Current Conditions -  °F | °C
As of 6:15 PM on Friday 21 Nov 2014 (Local Time) from KPTS Reporting Station
Overcast Overcast  
Wind Chill: 56°   Ceiling: 1500
Heat Index: 56°   Visibility: 10mi
Dew Point: 49°   Wind: 12mph
Humidity: 78%   Direction: 150°SSE
Pressure: 30.08"   Gusts: NA
Location:  37.4268°N, 94.7004°W
Report Text: KPTS 220015Z AUTO 15010KT 10SM OVC015 13/10 A3008 RMK AO2 T01330096
Loading
Personal Weather Stations






























Interactive Weather Map New forecast layout! Learn more

10-Day Weather Forecast

Advertisements
Track Severe Weather on mobile